sensor_id;sensor_type;location;lat;lon;timestamp;temperature;humidity
54192;DHT22;40101;53.002;6.488;2022-09-13T00:00:42;17.40;99.90
54192;DHT22;40101;53.002;6.488;2022-09-13T00:03:09;17.40;99.90
54192;DHT22;40101;53.002;6.488;2022-09-13T00:05:38;17.50;99.90
54192;DHT22;40101;53.002;6.488;2022-09-13T00:08:05;17.40;99.90
54192;DHT22;40101;53.002;6.488;2022-09-13T00:10:33;17.50;99.90
54192;DHT22;40101;53.002;6.488;2022-09-13T00:13:00;17.40;99.90
54192;DHT22;40101;53.002;6.488;2022-09-13T00:15:26;17.40;99.90
54192;DHT22;40101;53.002;6.488;2022-09-13T00:17:52;17.40;99.90
54192;DHT22;40101;53.002;6.488;2022-09-13T00:20:18;17.50;99.90
54192;DHT22;40101;53.002;6.488;2022-09-13T00:22:44;17.50;99.90
54192;DHT22;40101;53.002;6.488;2022-09-13T00:25:11;17.50;99.90
54192;DHT22;40101;53.002;6.488;2022-09-13T00:27:37;17.50;99.90
54192;DHT22;40101;53.002;6.488;2022-09-13T00:30:06;17.50;99.90
54192;DHT22;40101;53.002;6.488;2022-09-13T00:32:33;17.50;99.90
54192;DHT22;40101;53.002;6.488;2022-09-13T00:35:00;17.50;99.90
54192;DHT22;40101;53.002;6.488;2022-09-13T00:37:25;17.50;99.90
54192;DHT22;40101;53.002;6.488;2022-09-13T00:39:51;17.50;99.90
54192;DHT22;40101;53.002;6.488;2022-09-13T00:42:17;17.50;99.90
54192;DHT22;40101;53.002;6.488;2022-09-13T00:47:55;17.40;99.90
54192;DHT22;40101;53.002;6.488;2022-09-13T00:50:38;17.40;99.90
54192;DHT22;40101;53.002;6.488;2022-09-13T00:55:41;17.30;99.90
54192;DHT22;40101;53.002;6.488;2022-09-13T00:58:33;17.40;99.90
54192;DHT22;40101;53.002;6.488;2022-09-13T01:00:57;17.50;99.90
54192;DHT22;40101;53.002;6.488;2022-09-13T01:03:27;17.40;99.90
54192;DHT22;40101;53.002;6.488;2022-09-13T01:06:01;17.50;99.90
54192;DHT22;40101;53.002;6.488;2022-09-13T01:08:29;17.30;99.90
54192;DHT22;40101;53.002;6.488;2022-09-13T01:10:58;17.30;99.90
54192;DHT22;40101;53.002;6.488;2022-09-13T01:13:32;17.30;99.90
54192;DHT22;40101;53.002;6.488;2022-09-13T01:15:59;17.40;99.90
54192;DHT22;40101;53.002;6.488;2022-09-13T01:18:25;17.30;99.90
54192;DHT22;40101;53.002;6.488;2022-09-13T01:23:55;17.30;99.90
54192;DHT22;40101;53.002;6.488;2022-09-13T01:32:32;17.30;99.90
54192;DHT22;40101;53.002;6.488;2022-09-13T01:37:59;17.20;99.90
54192;DHT22;40101;53.002;6.488;2022-09-13T01:43:22;17.20;99.90
54192;DHT22;40101;53.002;6.488;2022-09-13T01:46:05;17.20;99.90
54192;DHT22;40101;53.002;6.488;2022-09-13T01:51:11;17.20;99.90
54192;DHT22;40101;53.002;6.488;2022-09-13T01:54:11;17.30;99.90
54192;DHT22;40101;53.002;6.488;2022-09-13T01:56:42;17.30;99.90
54192;DHT22;40101;53.002;6.488;2022-09-13T01:59:35;17.20;99.90
54192;DHT22;40101;53.002;6.488;2022-09-13T02:02:30;17.20;99.90
54192;DHT22;40101;53.002;6.488;2022-09-13T02:08:09;17.20;99.90
54192;DHT22;40101;53.002;6.488;2022-09-13T02:10:49;17.20;99.90
54192;DHT22;40101;53.002;6.488;2022-09-13T02:13:20;17.10;99.90
54192;DHT22;40101;53.002;6.488;2022-09-13T02:15:50;17.10;99.90
54192;DHT22;40101;53.002;6.488;2022-09-13T02:18:42;17.20;99.90
54192;DHT22;40101;53.002;6.488;2022-09-13T02:21:15;17.10;99.90
54192;DHT22;40101;53.002;6.488;2022-09-13T02:23:53;17.10;99.90
54192;DHT22;40101;53.002;6.488;2022-09-13T02:26:23;17.00;99.90
54192;DHT22;40101;53.002;6.488;2022-09-13T02:28:55;17.10;99.90
54192;DHT22;40101;53.002;6.488;2022-09-13T02:31:29;17.20;99.90
54192;DHT22;40101;53.002;6.488;2022-09-13T02:34:00;17.10;99.90
54192;DHT22;40101;53.002;6.488;2022-09-13T02:36:31;17.10;99.90
54192;DHT22;40101;53.002;6.488;2022-09-13T02:39:08;17.10;99.90
54192;DHT22;40101;53.002;6.488;2022-09-13T02:41:42;17.10;99.90
54192;DHT22;40101;53.002;6.488;2022-09-13T02:47:27;17.10;99.90
54192;DHT22;40101;53.002;6.488;2022-09-13T02:53:13;17.10;99.90
54192;DHT22;40101;53.002;6.488;2022-09-13T02:55:45;17.00;99.90
54192;DHT22;40101;53.002;6.488;2022-09-13T02:58:20;17.00;99.90
54192;DHT22;40101;53.002;6.488;2022-09-13T03:00:48;16.90;99.90
54192;DHT22;40101;53.002;6.488;2022-09-13T03:03:15;16.90;99.90
54192;DHT22;40101;53.002;6.488;2022-09-13T03:05:41;16.90;99.90
54192;DHT22;40101;53.002;6.488;2022-09-13T03:08:08;16.90;99.90
54192;DHT22;40101;53.002;6.488;2022-09-13T03:11:13;17.10;99.90
54192;DHT22;40101;53.002;6.488;2022-09-13T03:13:44;17.00;99.90
54192;DHT22;40101;53.002;6.488;2022-09-13T03:16:33;16.90;99.90
54192;DHT22;40101;53.002;6.488;2022-09-13T03:22:05;17.00;99.90
54192;DHT22;40101;53.002;6.488;2022-09-13T03:27:51;17.00;99.90
54192;DHT22;40101;53.002;6.488;2022-09-13T03:30:18;17.00;99.90
54192;DHT22;40101;53.002;6.488;2022-09-13T03:35:38;17.10;99.90
54192;DHT22;40101;53.002;6.488;2022-09-13T03:38:06;17.10;99.90
54192;DHT22;40101;53.002;6.488;2022-09-13T03:41:00;17.10;99.90
54192;DHT22;40101;53.002;6.488;2022-09-13T03:43:35;17.20;99.90
54192;DHT22;40101;53.002;6.488;2022-09-13T03:46:18;17.20;99.90
54192;DHT22;40101;53.002;6.488;2022-09-13T03:48:45;17.30;99.90
54192;DHT22;40101;53.002;6.488;2022-09-13T03:51:12;17.30;99.90
54192;DHT22;40101;53.002;6.488;2022-09-13T03:53:42;17.30;99.90
54192;DHT22;40101;53.002;6.488;2022-09-13T03:56:18;17.40;99.90
54192;DHT22;40101;53.002;6.488;2022-09-13T03:58:46;17.30;99.90
54192;DHT22;40101;53.002;6.488;2022-09-13T04:01:12;17.30;99.90
54192;DHT22;40101;53.002;6.488;2022-09-13T04:03:38;17.30;99.90
54192;DHT22;40101;53.002;6.488;2022-09-13T04:06:05;17.40;99.90
54192;DHT22;40101;53.002;6.488;2022-09-13T04:08:31;17.40;99.90
54192;DHT22;40101;53.002;6.488;2022-09-13T04:10:57;17.30;99.90
54192;DHT22;40101;53.002;6.488;2022-09-13T04:13:23;17.40;99.90
54192;DHT22;40101;53.002;6.488;2022-09-13T04:15:49;17.40;99.90
54192;DHT22;40101;53.002;6.488;2022-09-13T04:18:15;17.40;99.90
54192;DHT22;40101;53.002;6.488;2022-09-13T04:20:42;17.30;99.90
54192;DHT22;40101;53.002;6.488;2022-09-13T04:23:07;17.40;99.90
54192;DHT22;40101;53.002;6.488;2022-09-13T04:25:33;17.50;99.90
54192;DHT22;40101;53.002;6.488;2022-09-13T04:27:58;17.50;99.90
54192;DHT22;40101;53.002;6.488;2022-09-13T04:30:25;17.50;99.90
54192;DHT22;40101;53.002;6.488;2022-09-13T04:32:52;17.50;99.90
54192;DHT22;40101;53.002;6.488;2022-09-13T04:35:21;17.50;99.90
54192;DHT22;40101;53.002;6.488;2022-09-13T04:37:47;17.50;99.90
54192;DHT22;40101;53.002;6.488;2022-09-13T04:40:12;17.50;99.90
54192;DHT22;40101;53.002;6.488;2022-09-13T04:42:39;17.50;99.90
54192;DHT22;40101;53.002;6.488;2022-09-13T04:45:05;17.50;99.90
54192;DHT22;40101;53.002;6.488;2022-09-13T04:47:31;17.40;99.90
54192;DHT22;40101;53.002;6.488;2022-09-13T04:49:57;17.50;99.90
54192;DHT22;40101;53.002;6.488;2022-09-13T04:52:22;17.50;99.90
54192;DHT22;40101;53.002;6.488;2022-09-13T04:54:50;17.50;99.90
54192;DHT22;40101;53.002;6.488;2022-09-13T04:57:16;17.60;99.90
54192;DHT22;40101;53.002;6.488;2022-09-13T04:59:47;17.40;99.90
54192;DHT22;40101;53.002;6.488;2022-09-13T05:02:12;17.40;99.90
54192;DHT22;40101;53.002;6.488;2022-09-13T05:04:38;17.40;99.90
54192;DHT22;40101;53.002;6.488;2022-09-13T05:07:04;17.40;99.90
54192;DHT22;40101;53.002;6.488;2022-09-13T05:09:30;17.40;99.90
54192;DHT22;40101;53.002;6.488;2022-09-13T05:11:56;17.30;99.90
54192;DHT22;40101;53.002;6.488;2022-09-13T05:14:22;17.40;99.90
54192;DHT22;40101;53.002;6.488;2022-09-13T05:16:47;17.30;99.90
54192;DHT22;40101;53.002;6.488;2022-09-13T05:19:13;17.30;99.90
54192;DHT22;40101;53.002;6.488;2022-09-13T05:21:39;17.30;99.90
54192;DHT22;40101;53.002;6.488;2022-09-13T05:24:05;17.30;99.90
54192;DHT22;40101;53.002;6.488;2022-09-13T05:26:30;17.30;99.90
54192;DHT22;40101;53.002;6.488;2022-09-13T05:28:59;17.30;99.90
54192;DHT22;40101;53.002;6.488;2022-09-13T05:31:30;17.30;99.90
54192;DHT22;40101;53.002;6.488;2022-09-13T05:34:00;17.30;99.90
54192;DHT22;40101;53.002;6.488;2022-09-13T05:36:27;17.30;99.90
54192;DHT22;40101;53.002;6.488;2022-09-13T05:38:54;17.40;99.90
54192;DHT22;40101;53.002;6.488;2022-09-13T05:41:19;17.30;99.90
54192;DHT22;40101;53.002;6.488;2022-09-13T05:43:45;17.20;99.90
54192;DHT22;40101;53.002;6.488;2022-09-13T05:46:16;17.20;99.90
54192;DHT22;40101;53.002;6.488;2022-09-13T05:48:43;17.20;99.90
54192;DHT22;40101;53.002;6.488;2022-09-13T05:51:10;17.20;99.90
54192;DHT22;40101;53.002;6.488;2022-09-13T05:53:37;17.30;99.90
54192;DHT22;40101;53.002;6.488;2022-09-13T05:56:06;17.20;99.90
54192;DHT22;40101;53.002;6.488;2022-09-13T05:58:32;17.20;99.90
54192;DHT22;40101;53.002;6.488;2022-09-13T06:01:00;17.20;99.90
54192;DHT22;40101;53.002;6.488;2022-09-13T06:03:25;17.20;99.90
54192;DHT22;40101;53.002;6.488;2022-09-13T06:05:58;17.30;99.90
54192;DHT22;40101;53.002;6.488;2022-09-13T06:08:30;17.20;99.90
54192;DHT22;40101;53.002;6.488;2022-09-13T06:10:59;17.30;99.90
54192;DHT22;40101;53.002;6.488;2022-09-13T06:13:25;17.30;99.90
54192;DHT22;40101;53.002;6.488;2022-09-13T06:15:53;17.40;99.90
54192;DHT22;40101;53.002;6.488;2022-09-13T06:18:19;17.30;99.90
54192;DHT22;40101;53.002;6.488;2022-09-13T06:20:57;17.30;99.90
54192;DHT22;40101;53.002;6.488;2022-09-13T06:23:24;17.30;99.90
54192;DHT22;40101;53.002;6.488;2022-09-13T06:25:49;17.20;99.90
54192;DHT22;40101;53.002;6.488;2022-09-13T06:28:15;17.30;99.90
54192;DHT22;40101;53.002;6.488;2022-09-13T06:30:40;17.30;99.90
54192;DHT22;40101;53.002;6.488;2022-09-13T06:33:06;17.30;99.90
54192;DHT22;40101;53.002;6.488;2022-09-13T06:35:32;17.30;99.90
54192;DHT22;40101;53.002;6.488;2022-09-13T06:37:58;17.20;99.90
54192;DHT22;40101;53.002;6.488;2022-09-13T06:40:26;17.30;99.90
54192;DHT22;40101;53.002;6.488;2022-09-13T06:42:52;17.30;99.90
54192;DHT22;40101;53.002;6.488;2022-09-13T06:45:18;17.30;99.90
54192;DHT22;40101;53.002;6.488;2022-09-13T06:47:45;17.40;99.90
54192;DHT22;40101;53.002;6.488;2022-09-13T06:50:10;17.40;99.90
54192;DHT22;40101;53.002;6.488;2022-09-13T06:52:36;17.50;99.90
54192;DHT22;40101;53.002;6.488;2022-09-13T06:55:03;17.50;99.90
54192;DHT22;40101;53.002;6.488;2022-09-13T06:57:31;17.50;99.90
54192;DHT22;40101;53.002;6.488;2022-09-13T06:59:57;17.50;99.90
54192;DHT22;40101;53.002;6.488;2022-09-13T07:02:23;17.50;99.90
54192;DHT22;40101;53.002;6.488;2022-09-13T07:04:49;17.60;99.90
54192;DHT22;40101;53.002;6.488;2022-09-13T07:07:14;17.60;99.90
54192;DHT22;40101;53.002;6.488;2022-09-13T07:09:40;17.70;99.90
54192;DHT22;40101;53.002;6.488;2022-09-13T07:12:13;17.80;99.90
54192;DHT22;40101;53.002;6.488;2022-09-13T07:14:39;18.10;99.90
54192;DHT22;40101;53.002;6.488;2022-09-13T07:17:06;18.30;99.90
54192;DHT22;40101;53.002;6.488;2022-09-13T07:19:31;18.90;99.90
54192;DHT22;40101;53.002;6.488;2022-09-13T07:21:57;19.20;99.90
54192;DHT22;40101;53.002;6.488;2022-09-13T07:24:26;19.60;99.90
54192;DHT22;40101;53.002;6.488;2022-09-13T07:27:01;20.60;99.90
54192;DHT22;40101;53.002;6.488;2022-09-13T07:29:27;21.20;99.90
54192;DHT22;40101;53.002;6.488;2022-09-13T07:31:53;22.10;99.90
54192;DHT22;40101;53.002;6.488;2022-09-13T07:34:21;23.30;99.90
54192;DHT22;40101;53.002;6.488;2022-09-13T07:36:48;24.40;99.90
54192;DHT22;40101;53.002;6.488;2022-09-13T07:39:14;25.10;99.90
54192;DHT22;40101;53.002;6.488;2022-09-13T07:41:41;25.50;99.90
54192;DHT22;40101;53.002;6.488;2022-09-13T07:44:08;25.80;99.90
54192;DHT22;40101;53.002;6.488;2022-09-13T07:46:35;26.20;99.90
54192;DHT22;40101;53.002;6.488;2022-09-13T07:49:05;26.10;99.90
54192;DHT22;40101;53.002;6.488;2022-09-13T07:51:34;25.40;99.90
54192;DHT22;40101;53.002;6.488;2022-09-13T07:54:02;25.90;99.90
54192;DHT22;40101;53.002;6.488;2022-09-13T07:56:36;26.20;99.90
54192;DHT22;40101;53.002;6.488;2022-09-13T07:59:04;25.80;99.90
54192;DHT22;40101;53.002;6.488;2022-09-13T08:04:01;24.60;99.90
54192;DHT22;40101;53.002;6.488;2022-09-13T08:06:31;24.40;99.90
54192;DHT22;40101;53.002;6.488;2022-09-13T08:08:57;24.40;99.90
54192;DHT22;40101;53.002;6.488;2022-09-13T08:11:29;25.10;99.90
54192;DHT22;40101;53.002;6.488;2022-09-13T08:13:55;25.90;99.90
54192;DHT22;40101;53.002;6.488;2022-09-13T08:16:23;26.80;99.90
54192;DHT22;40101;53.002;6.488;2022-09-13T08:18:52;27.50;99.90
54192;DHT22;40101;53.002;6.488;2022-09-13T08:21:18;28.10;99.90
54192;DHT22;40101;53.002;6.488;2022-09-13T08:23:45;27.80;99.90
54192;DHT22;40101;53.002;6.488;2022-09-13T08:26:11;27.50;99.90
54192;DHT22;40101;53.002;6.488;2022-09-13T08:28:39;27.70;99.90
54192;DHT22;40101;53.002;6.488;2022-09-13T08:31:08;28.40;99.90
54192;DHT22;40101;53.002;6.488;2022-09-13T08:33:35;28.80;99.90
54192;DHT22;40101;53.002;6.488;2022-09-13T08:36:01;29.30;99.90
54192;DHT22;40101;53.002;6.488;2022-09-13T08:38:28;29.50;99.80
54192;DHT22;40101;53.002;6.488;2022-09-13T08:40:56;29.60;98.60
54192;DHT22;40101;53.002;6.488;2022-09-13T08:43:29;29.60;97.80
54192;DHT22;40101;53.002;6.488;2022-09-13T08:46:05;29.90;95.60
54192;DHT22;40101;53.002;6.488;2022-09-13T08:48:41;30.10;94.70
54192;DHT22;40101;53.002;6.488;2022-09-13T08:54:02;30.30;90.70
54192;DHT22;40101;53.002;6.488;2022-09-13T08:56:40;30.30;90.40
54192;DHT22;40101;53.002;6.488;2022-09-13T09:04:50;30.10;88.80
54192;DHT22;40101;53.002;6.488;2022-09-13T09:07:20;29.20;87.80
54192;DHT22;40101;53.002;6.488;2022-09-13T09:09:57;27.90;90.30
54192;DHT22;40101;53.002;6.488;2022-09-13T09:12:42;26.60;91.70
54192;DHT22;40101;53.002;6.488;2022-09-13T09:15:23;25.90;94.20
54192;DHT22;40101;53.002;6.488;2022-09-13T09:18:03;26.70;93.00
54192;DHT22;40101;53.002;6.488;2022-09-13T09:20:41;27.80;90.50
54192;DHT22;40101;53.002;6.488;2022-09-13T09:23:17;28.80;90.10
54192;DHT22;40101;53.002;6.488;2022-09-13T09:25:43;29.50;89.20
54192;DHT22;40101;53.002;6.488;2022-09-13T09:28:15;30.00;86.90
54192;DHT22;40101;53.002;6.488;2022-09-13T09:31:18;29.80;83.00
54192;DHT22;40101;53.002;6.488;2022-09-13T09:33:53;28.70;87.00
54192;DHT22;40101;53.002;6.488;2022-09-13T09:36:55;27.50;88.30
54192;DHT22;40101;53.002;6.488;2022-09-13T09:39:16;27.30;90.60
54192;DHT22;40101;53.002;6.488;2022-09-13T09:41:43;28.10;90.60
54192;DHT22;40101;53.002;6.488;2022-09-13T09:46:58;29.70;84.60
54192;DHT22;40101;53.002;6.488;2022-09-13T09:56:30;30.60;76.00
54192;DHT22;40101;53.002;6.488;2022-09-13T09:58:56;30.20;74.60
54192;DHT22;40101;53.002;6.488;2022-09-13T10:01:24;29.30;79.60
54192;DHT22;40101;53.002;6.488;2022-09-13T10:06:40;29.30;78.80
54192;DHT22;40101;53.002;6.488;2022-09-13T10:09:21;29.60;77.70
54192;DHT22;40101;53.002;6.488;2022-09-13T10:11:57;29.90;73.10
54192;DHT22;40101;53.002;6.488;2022-09-13T10:17:03;30.50;72.60
54192;DHT22;40101;53.002;6.488;2022-09-13T10:19:30;30.40;71.80
54192;DHT22;40101;53.002;6.488;2022-09-13T10:22:01;30.10;72.00
54192;DHT22;40101;53.002;6.488;2022-09-13T10:24:28;29.50;71.30
54192;DHT22;40101;53.002;6.488;2022-09-13T10:26:55;29.40;73.50
54192;DHT22;40101;53.002;6.488;2022-09-13T10:29:22;29.50;73.00
54192;DHT22;40101;53.002;6.488;2022-09-13T10:31:51;29.20;72.80
54192;DHT22;40101;53.002;6.488;2022-09-13T10:34:24;28.80;74.30
54192;DHT22;40101;53.002;6.488;2022-09-13T10:40:02;27.60;75.00
54192;DHT22;40101;53.002;6.488;2022-09-13T10:42:30;27.00;77.90
54192;DHT22;40101;53.002;6.488;2022-09-13T10:45:00;26.70;80.60
54192;DHT22;40101;53.002;6.488;2022-09-13T10:47:32;26.30;80.00
54192;DHT22;40101;53.002;6.488;2022-09-13T10:50:23;26.20;82.30
54192;DHT22;40101;53.002;6.488;2022-09-13T10:52:57;25.90;80.80
54192;DHT22;40101;53.002;6.488;2022-09-13T10:55:24;25.70;81.20
54192;DHT22;40101;53.002;6.488;2022-09-13T11:03:20;25.50;81.10
54192;DHT22;40101;53.002;6.488;2022-09-13T11:17:02;24.70;86.00
54192;DHT22;40101;53.002;6.488;2022-09-13T11:25:27;23.90;89.60
54192;DHT22;40101;53.002;6.488;2022-09-13T11:28:13;23.70;89.40
54192;DHT22;40101;53.002;6.488;2022-09-13T11:33:46;24.00;89.80
54192;DHT22;40101;53.002;6.488;2022-09-13T11:55:22;24.10;87.30
54192;DHT22;40101;53.002;6.488;2022-09-13T11:57:52;23.90;87.10
54192;DHT22;40101;53.002;6.488;2022-09-13T12:00:25;23.80;88.40
54192;DHT22;40101;53.002;6.488;2022-09-13T12:03:20;23.90;87.50
54192;DHT22;40101;53.002;6.488;2022-09-13T12:05:55;23.70;90.20
54192;DHT22;40101;53.002;6.488;2022-09-13T12:08:25;23.90;87.20
54192;DHT22;40101;53.002;6.488;2022-09-13T12:13:30;24.00;88.50
54192;DHT22;40101;53.002;6.488;2022-09-13T12:16:04;24.10;89.00
54192;DHT22;40101;53.002;6.488;2022-09-13T12:18:44;24.10;87.70
54192;DHT22;40101;53.002;6.488;2022-09-13T12:21:13;24.20;85.70
54192;DHT22;40101;53.002;6.488;2022-09-13T12:26:34;24.10;85.10
54192;DHT22;40101;53.002;6.488;2022-09-13T12:29:27;23.80;86.30
54192;DHT22;40101;53.002;6.488;2022-09-13T12:31:59;23.70;87.60
54192;DHT22;40101;53.002;6.488;2022-09-13T12:35:06;23.70;86.90
54192;DHT22;40101;53.002;6.488;2022-09-13T12:45:36;23.60;88.60
54192;DHT22;40101;53.002;6.488;2022-09-13T12:51:07;23.80;86.80
54192;DHT22;40101;53.002;6.488;2022-09-13T13:01:49;23.70;87.90
54192;DHT22;40101;53.002;6.488;2022-09-13T13:07:15;23.90;87.00
54192;DHT22;40101;53.002;6.488;2022-09-13T13:09:54;24.00;85.80
54192;DHT22;40101;53.002;6.488;2022-09-13T13:15:07;23.80;88.50
54192;DHT22;40101;53.002;6.488;2022-09-13T13:17:48;23.60;89.00
54192;DHT22;40101;53.002;6.488;2022-09-13T13:31:09;23.20;91.00
54192;DHT22;40101;53.002;6.488;2022-09-13T13:33:47;23.40;91.10
54192;DHT22;40101;53.002;6.488;2022-09-13T13:59:50;23.60;88.40
54192;DHT22;40101;53.002;6.488;2022-09-13T14:02:20;23.50;89.40
54192;DHT22;40101;53.002;6.488;2022-09-13T14:05:12;23.20;89.70
54192;DHT22;40101;53.002;6.488;2022-09-13T14:10:57;22.60;90.10
54192;DHT22;40101;53.002;6.488;2022-09-13T14:16:38;22.60;91.40
54192;DHT22;40101;53.002;6.488;2022-09-13T14:19:21;22.60;91.50
54192;DHT22;40101;53.002;6.488;2022-09-13T14:22:12;22.70;91.10
54192;DHT22;40101;53.002;6.488;2022-09-13T14:24:46;22.80;90.80
54192;DHT22;40101;53.002;6.488;2022-09-13T14:27:19;23.00;90.60
54192;DHT22;40101;53.002;6.488;2022-09-13T14:29:52;22.90;91.50
54192;DHT22;40101;53.002;6.488;2022-09-13T14:32:21;22.90;92.20
54192;DHT22;40101;53.002;6.488;2022-09-13T14:35:01;22.90;92.80
54192;DHT22;40101;53.002;6.488;2022-09-13T14:37:33;23.00;92.10
54192;DHT22;40101;53.002;6.488;2022-09-13T14:40:01;22.80;91.60
54192;DHT22;40101;53.002;6.488;2022-09-13T14:42:41;22.70;92.20
54192;DHT22;40101;53.002;6.488;2022-09-13T14:45:26;22.60;92.10
54192;DHT22;40101;53.002;6.488;2022-09-13T14:50:40;22.30;92.40
54192;DHT22;40101;53.002;6.488;2022-09-13T14:53:13;22.10;92.60
54192;DHT22;40101;53.002;6.488;2022-09-13T14:55:43;22.10;92.60
54192;DHT22;40101;53.002;6.488;2022-09-13T14:58:28;22.00;93.20
54192;DHT22;40101;53.002;6.488;2022-09-13T15:00:58;22.00;93.10
54192;DHT22;40101;53.002;6.488;2022-09-13T15:03:25;22.10;93.40
54192;DHT22;40101;53.002;6.488;2022-09-13T15:05:55;22.20;93.10
54192;DHT22;40101;53.002;6.488;2022-09-13T15:11:04;22.00;92.50
54192;DHT22;40101;53.002;6.488;2022-09-13T15:13:31;21.90;92.80
54192;DHT22;40101;53.002;6.488;2022-09-13T15:15:58;21.80;92.70
54192;DHT22;40101;53.002;6.488;2022-09-13T15:18:29;21.70;92.60
54192;DHT22;40101;53.002;6.488;2022-09-13T15:20:58;21.70;92.80
54192;DHT22;40101;53.002;6.488;2022-09-13T15:23:40;21.60;92.50
54192;DHT22;40101;53.002;6.488;2022-09-13T15:31:05;21.30;93.10
54192;DHT22;40101;53.002;6.488;2022-09-13T15:33:33;21.20;93.00
54192;DHT22;40101;53.002;6.488;2022-09-13T15:39:19;21.10;93.50
54192;DHT22;40101;53.002;6.488;2022-09-13T15:41:53;21.00;93.40
54192;DHT22;40101;53.002;6.488;2022-09-13T15:44:19;21.00;93.80
54192;DHT22;40101;53.002;6.488;2022-09-13T15:46:51;21.00;94.00
54192;DHT22;40101;53.002;6.488;2022-09-13T15:49:23;21.00;94.00
54192;DHT22;40101;53.002;6.488;2022-09-13T15:51:59;21.00;94.00
54192;DHT22;40101;53.002;6.488;2022-09-13T15:54:35;20.90;94.40
54192;DHT22;40101;53.002;6.488;2022-09-13T15:57:01;20.70;94.40
54192;DHT22;40101;53.002;6.488;2022-09-13T15:59:30;20.70;95.10
54192;DHT22;40101;53.002;6.488;2022-09-13T16:01:56;20.70;95.10
54192;DHT22;40101;53.002;6.488;2022-09-13T16:04:21;20.60;94.80
54192;DHT22;40101;53.002;6.488;2022-09-13T16:06:48;20.50;95.20
54192;DHT22;40101;53.002;6.488;2022-09-13T16:09:22;20.60;95.20
54192;DHT22;40101;53.002;6.488;2022-09-13T16:11:49;20.50;95.10
54192;DHT22;40101;53.002;6.488;2022-09-13T16:14:16;20.50;95.40
54192;DHT22;40101;53.002;6.488;2022-09-13T16:16:42;20.60;95.70
54192;DHT22;40101;53.002;6.488;2022-09-13T16:19:17;20.50;95.90
54192;DHT22;40101;53.002;6.488;2022-09-13T16:21:43;20.50;96.20
54192;DHT22;40101;53.002;6.488;2022-09-13T16:24:09;20.30;96.40
54192;DHT22;40101;53.002;6.488;2022-09-13T16:26:35;20.20;97.00
54192;DHT22;40101;53.002;6.488;2022-09-13T16:29:01;20.00;97.20
54192;DHT22;40101;53.002;6.488;2022-09-13T16:31:27;20.00;97.40
54192;DHT22;40101;53.002;6.488;2022-09-13T16:33:52;20.00;97.90
54192;DHT22;40101;53.002;6.488;2022-09-13T16:36:18;19.80;98.40
54192;DHT22;40101;53.002;6.488;2022-09-13T16:38:44;19.70;98.70
54192;DHT22;40101;53.002;6.488;2022-09-13T16:41:10;19.70;98.60
54192;DHT22;40101;53.002;6.488;2022-09-13T16:43:36;19.60;98.70
54192;DHT22;40101;53.002;6.488;2022-09-13T16:46:06;19.50;99.00
54192;DHT22;40101;53.002;6.488;2022-09-13T16:48:32;19.50;99.10
54192;DHT22;40101;53.002;6.488;2022-09-13T16:51:16;19.50;99.60
54192;DHT22;40101;53.002;6.488;2022-09-13T16:53:42;19.30;99.90
54192;DHT22;40101;53.002;6.488;2022-09-13T16:56:13;19.20;99.90
54192;DHT22;40101;53.002;6.488;2022-09-13T16:58:42;19.10;99.90
54192;DHT22;40101;53.002;6.488;2022-09-13T17:01:12;19.30;99.90
54192;DHT22;40101;53.002;6.488;2022-09-13T17:03:39;18.90;99.90
54192;DHT22;40101;53.002;6.488;2022-09-13T17:06:08;18.90;99.90
54192;DHT22;40101;53.002;6.488;2022-09-13T17:08:36;18.80;99.90
54192;DHT22;40101;53.002;6.488;2022-09-13T17:11:13;18.70;99.90
54192;DHT22;40101;53.002;6.488;2022-09-13T17:13:40;18.60;99.90
54192;DHT22;40101;53.002;6.488;2022-09-13T17:16:17;18.60;99.90
54192;DHT22;40101;53.002;6.488;2022-09-13T17:18:44;18.50;99.90
54192;DHT22;40101;53.002;6.488;2022-09-13T17:21:09;18.40;99.90
54192;DHT22;40101;53.002;6.488;2022-09-13T17:23:35;18.40;99.90
54192;DHT22;40101;53.002;6.488;2022-09-13T17:26:01;18.30;99.90
54192;DHT22;40101;53.002;6.488;2022-09-13T17:28:27;18.30;99.90
54192;DHT22;40101;53.002;6.488;2022-09-13T17:30:52;18.20;99.90
54192;DHT22;40101;53.002;6.488;2022-09-13T17:33:18;18.10;99.90
54192;DHT22;40101;53.002;6.488;2022-09-13T17:35:44;18.10;99.90
54192;DHT22;40101;53.002;6.488;2022-09-13T17:38:09;18.00;99.90
54192;DHT22;40101;53.002;6.488;2022-09-13T17:40:36;18.00;99.90
54192;DHT22;40101;53.002;6.488;2022-09-13T17:43:02;18.00;99.90
54192;DHT22;40101;53.002;6.488;2022-09-13T17:45:28;17.90;99.90
54192;DHT22;40101;53.002;6.488;2022-09-13T17:47:54;17.80;99.90
54192;DHT22;40101;53.002;6.488;2022-09-13T17:50:21;17.70;99.90
54192;DHT22;40101;53.002;6.488;2022-09-13T17:52:47;17.60;99.90
54192;DHT22;40101;53.002;6.488;2022-09-13T17:55:13;17.40;99.90
54192;DHT22;40101;53.002;6.488;2022-09-13T17:57:39;17.30;99.90
54192;DHT22;40101;53.002;6.488;2022-09-13T18:00:06;17.40;99.90
54192;DHT22;40101;53.002;6.488;2022-09-13T18:02:37;17.10;99.90
54192;DHT22;40101;53.002;6.488;2022-09-13T18:05:03;17.10;99.90
54192;DHT22;40101;53.002;6.488;2022-09-13T18:07:29;17.00;99.90
54192;DHT22;40101;53.002;6.488;2022-09-13T18:09:55;16.90;99.90
54192;DHT22;40101;53.002;6.488;2022-09-13T18:12:21;16.90;99.90
54192;DHT22;40101;53.002;6.488;2022-09-13T18:14:46;16.80;99.90
54192;DHT22;40101;53.002;6.488;2022-09-13T18:17:12;16.70;99.90
54192;DHT22;40101;53.002;6.488;2022-09-13T18:19:39;16.60;99.90
54192;DHT22;40101;53.002;6.488;2022-09-13T18:22:08;16.60;99.90
54192;DHT22;40101;53.002;6.488;2022-09-13T18:24:34;16.60;99.90
54192;DHT22;40101;53.002;6.488;2022-09-13T18:27:00;16.50;99.90
54192;DHT22;40101;53.002;6.488;2022-09-13T18:29:26;16.50;99.90
54192;DHT22;40101;53.002;6.488;2022-09-13T18:31:54;16.40;99.90
54192;DHT22;40101;53.002;6.488;2022-09-13T18:34:20;16.30;99.90
54192;DHT22;40101;53.002;6.488;2022-09-13T18:36:46;16.20;99.90
54192;DHT22;40101;53.002;6.488;2022-09-13T18:39:15;16.10;99.90
54192;DHT22;40101;53.002;6.488;2022-09-13T18:41:41;16.00;99.90
54192;DHT22;40101;53.002;6.488;2022-09-13T18:44:09;15.90;99.90
54192;DHT22;40101;53.002;6.488;2022-09-13T18:46:35;15.90;99.90
54192;DHT22;40101;53.002;6.488;2022-09-13T18:49:03;15.90;99.90
54192;DHT22;40101;53.002;6.488;2022-09-13T18:51:37;15.80;99.90
54192;DHT22;40101;53.002;6.488;2022-09-13T18:54:04;15.70;99.90
54192;DHT22;40101;53.002;6.488;2022-09-13T18:56:31;15.70;99.90
54192;DHT22;40101;53.002;6.488;2022-09-13T18:58:59;15.70;99.90
54192;DHT22;40101;53.002;6.488;2022-09-13T19:01:28;15.60;99.90
54192;DHT22;40101;53.002;6.488;2022-09-13T19:03:56;15.50;99.90
54192;DHT22;40101;53.002;6.488;2022-09-13T19:06:25;15.60;99.90
54192;DHT22;40101;53.002;6.488;2022-09-13T19:08:53;15.70;99.90